sensor_id;sensor_type;location;lat;lon;timestamp;P1;durP1;ratioP1;P2;durP2;ratioP2
60054;SDS011;45930;53.514;55.904;2023-04-24T00:00:18;25.15;;;21.13;;
60054;SDS011;45930;53.514;55.904;2023-04-24T00:01:19;27.85;;;23.23;;
60054;SDS011;45930;53.514;55.904;2023-04-24T00:02:20;27.92;;;22.42;;
60054;SDS011;45930;53.514;55.904;2023-04-24T00:03:22;26.02;;;21.70;;
60054;SDS011;45930;53.514;55.904;2023-04-24T00:04:24;25.92;;;22.40;;
60054;SDS011;45930;53.514;55.904;2023-04-24T00:05:26;27.65;;;23.08;;
60054;SDS011;45930;53.514;55.904;2023-04-24T00:06:27;28.80;;;22.85;;
60054;SDS011;45930;53.514;55.904;2023-04-24T00:07:33;27.30;;;22.73;;
60054;SDS011;45930;53.514;55.904;2023-04-24T00:08:35;24.73;;;22.15;;
60054;SDS011;45930;53.514;55.904;2023-04-24T00:09:36;25.20;;;22.15;;
60054;SDS011;45930;53.514;55.904;2023-04-24T00:10:37;25.50;;;22.80;;
60054;SDS011;45930;53.514;55.904;2023-04-24T00:11:38;24.95;;;22.23;;
60054;SDS011;45930;53.514;55.904;2023-04-24T00:12:39;29.67;;;22.83;;
60054;SDS011;45930;53.514;55.904;2023-04-24T00:13:39;31.70;;;23.27;;
60054;SDS011;45930;53.514;55.904;2023-04-24T00:14:40;25.85;;;23.10;;
60054;SDS011;45930;53.514;55.904;2023-04-24T00:15:41;31.75;;;23.83;;
60054;SDS011;45930;53.514;55.904;2023-04-24T00:16:42;28.67;;;23.10;;
60054;SDS011;45930;53.514;55.904;2023-04-24T00:17:43;32.95;;;24.92;;
60054;SDS011;45930;53.514;55.904;2023-04-24T00:18:43;27.67;;;22.55;;
60054;SDS011;45930;53.514;55.904;2023-04-24T00:19:45;29.95;;;24.60;;
60054;SDS011;45930;53.514;55.904;2023-04-24T00:20:46;29.52;;;24.17;;
60054;SDS011;45930;53.514;55.904;2023-04-24T00:21:47;28.52;;;24.38;;
60054;SDS011;45930;53.514;55.904;2023-04-24T00:22:50;30.98;;;25.45;;
60054;SDS011;45930;53.514;55.904;2023-04-24T00:23:51;29.42;;;23.63;;
60054;SDS011;45930;53.514;55.904;2023-04-24T00:24:52;31.48;;;23.98;;
60054;SDS011;45930;53.514;55.904;2023-04-24T00:25:52;33.03;;;25.73;;
60054;SDS011;45930;53.514;55.904;2023-04-24T00:26:53;31.23;;;25.63;;
60054;SDS011;45930;53.514;55.904;2023-04-24T00:27:54;31.05;;;25.73;;
60054;SDS011;45930;53.514;55.904;2023-04-24T00:28:55;34.38;;;25.83;;
60054;SDS011;45930;53.514;55.904;2023-04-24T00:29:55;34.03;;;26.17;;
60054;SDS011;45930;53.514;55.904;2023-04-24T00:30:56;32.97;;;25.73;;
60054;SDS011;45930;53.514;55.904;2023-04-24T00:31:57;33.08;;;23.90;;
60054;SDS011;45930;53.514;55.904;2023-04-24T00:32:58;38.22;;;26.48;;
60054;SDS011;45930;53.514;55.904;2023-04-24T00:33:59;32.45;;;26.10;;
60054;SDS011;45930;53.514;55.904;2023-04-24T00:35:01;30.73;;;25.52;;
60054;SDS011;45930;53.514;55.904;2023-04-24T00:36:02;28.60;;;23.88;;
60054;SDS011;45930;53.514;55.904;2023-04-24T00:37:03;30.17;;;23.85;;
60054;SDS011;45930;53.514;55.904;2023-04-24T00:38:04;28.75;;;23.35;;
60054;SDS011;45930;53.514;55.904;2023-04-24T00:39:05;35.67;;;24.65;;
60054;SDS011;45930;53.514;55.904;2023-04-24T00:40:05;28.40;;;23.42;;
60054;SDS011;45930;53.514;55.904;2023-04-24T00:41:07;28.80;;;23.02;;
60054;SDS011;45930;53.514;55.904;2023-04-24T00:42:08;28.17;;;23.10;;
60054;SDS011;45930;53.514;55.904;2023-04-24T00:43:09;30.45;;;24.15;;
60054;SDS011;45930;53.514;55.904;2023-04-24T00:44:10;34.63;;;23.83;;
60054;SDS011;45930;53.514;55.904;2023-04-24T00:45:11;26.83;;;23.13;;
60054;SDS011;45930;53.514;55.904;2023-04-24T00:46:12;30.13;;;23.10;;
60054;SDS011;45930;53.514;55.904;2023-04-24T00:47:14;29.65;;;23.02;;
60054;SDS011;45930;53.514;55.904;2023-04-24T00:48:15;29.60;;;24.13;;
60054;SDS011;45930;53.514;55.904;2023-04-24T00:49:16;29.27;;;25.50;;
60054;SDS011;45930;53.514;55.904;2023-04-24T00:50:18;26.38;;;23.55;;
60054;SDS011;45930;53.514;55.904;2023-04-24T00:51:21;30.65;;;24.30;;
60054;SDS011;45930;53.514;55.904;2023-04-24T00:52:24;29.15;;;24.45;;
60054;SDS011;45930;53.514;55.904;2023-04-24T00:53:26;32.70;;;25.13;;
60054;SDS011;45930;53.514;55.904;2023-04-24T00:54:26;31.23;;;24.92;;
60054;SDS011;45930;53.514;55.904;2023-04-24T00:55:27;30.38;;;24.88;;
60054;SDS011;45930;53.514;55.904;2023-04-24T00:56:28;31.75;;;26.98;;
60054;SDS011;45930;53.514;55.904;2023-04-24T00:57:30;30.45;;;24.95;;
60054;SDS011;45930;53.514;55.904;2023-04-24T00:58:30;31.58;;;25.40;;
60054;SDS011;45930;53.514;55.904;2023-04-24T00:59:32;32.63;;;26.65;;
60054;SDS011;45930;53.514;55.904;2023-04-24T01:00:33;33.67;;;25.65;;
60054;SDS011;45930;53.514;55.904;2023-04-24T01:01:34;31.27;;;24.85;;
60054;SDS011;45930;53.514;55.904;2023-04-24T01:02:36;33.35;;;26.70;;
60054;SDS011;45930;53.514;55.904;2023-04-24T01:03:40;33.58;;;27.60;;
60054;SDS011;45930;53.514;55.904;2023-04-24T01:04:42;35.00;;;26.95;;
60054;SDS011;45930;53.514;55.904;2023-04-24T01:05:43;33.20;;;26.65;;
60054;SDS011;45930;53.514;55.904;2023-04-24T01:06:44;35.67;;;28.63;;
60054;SDS011;45930;53.514;55.904;2023-04-24T01:07:46;38.25;;;29.45;;
60054;SDS011;45930;53.514;55.904;2023-04-24T01:08:49;35.05;;;28.08;;
60054;SDS011;45930;53.514;55.904;2023-04-24T01:09:50;31.50;;;27.20;;
60054;SDS011;45930;53.514;55.904;2023-04-24T01:10:52;33.05;;;26.83;;
60054;SDS011;45930;53.514;55.904;2023-04-24T01:11:53;34.30;;;25.95;;
60054;SDS011;45930;53.514;55.904;2023-04-24T01:12:54;30.92;;;26.05;;
60054;SDS011;45930;53.514;55.904;2023-04-24T01:13:56;31.52;;;26.77;;
60054;SDS011;45930;53.514;55.904;2023-04-24T01:14:57;31.35;;;25.38;;
60054;SDS011;45930;53.514;55.904;2023-04-24T01:15:58;31.48;;;24.38;;
60054;SDS011;45930;53.514;55.904;2023-04-24T01:16:59;31.52;;;23.90;;
60054;SDS011;45930;53.514;55.904;2023-04-24T01:18:00;27.88;;;24.77;;
60054;SDS011;45930;53.514;55.904;2023-04-24T01:19:01;32.25;;;26.17;;
60054;SDS011;45930;53.514;55.904;2023-04-24T01:20:03;31.60;;;24.67;;
60054;SDS011;45930;53.514;55.904;2023-04-24T01:21:05;29.20;;;24.20;;
60054;SDS011;45930;53.514;55.904;2023-04-24T01:22:12;29.05;;;24.40;;
60054;SDS011;45930;53.514;55.904;2023-04-24T01:23:14;34.97;;;27.08;;
60054;SDS011;45930;53.514;55.904;2023-04-24T01:24:15;31.52;;;26.23;;
60054;SDS011;45930;53.514;55.904;2023-04-24T01:25:16;33.08;;;26.48;;
60054;SDS011;45930;53.514;55.904;2023-04-24T01:26:17;32.67;;;26.92;;
60054;SDS011;45930;53.514;55.904;2023-04-24T01:27:20;31.60;;;26.00;;
60054;SDS011;45930;53.514;55.904;2023-04-24T01:28:21;31.55;;;25.02;;
60054;SDS011;45930;53.514;55.904;2023-04-24T01:29:22;31.42;;;25.80;;
60054;SDS011;45930;53.514;55.904;2023-04-24T01:30:24;29.92;;;24.88;;
60054;SDS011;45930;53.514;55.904;2023-04-24T01:31:26;31.67;;;26.30;;
60054;SDS011;45930;53.514;55.904;2023-04-24T01:32:27;32.90;;;26.58;;
60054;SDS011;45930;53.514;55.904;2023-04-24T01:33:28;36.75;;;27.75;;
60054;SDS011;45930;53.514;55.904;2023-04-24T01:34:29;36.40;;;27.95;;
60054;SDS011;45930;53.514;55.904;2023-04-24T01:35:31;32.55;;;27.17;;
60054;SDS011;45930;53.514;55.904;2023-04-24T01:36:32;31.92;;;26.65;;
60054;SDS011;45930;53.514;55.904;2023-04-24T01:37:35;31.40;;;26.27;;
60054;SDS011;45930;53.514;55.904;2023-04-24T01:38:39;29.38;;;25.35;;
60054;SDS011;45930;53.514;55.904;2023-04-24T01:39:40;32.67;;;26.45;;
60054;SDS011;45930;53.514;55.904;2023-04-24T01:40:41;35.08;;;26.70;;
60054;SDS011;45930;53.514;55.904;2023-04-24T01:41:42;33.10;;;26.88;;
60054;SDS011;45930;53.514;55.904;2023-04-24T01:42:43;32.00;;;26.33;;
60054;SDS011;45930;53.514;55.904;2023-04-24T01:43:44;35.03;;;27.02;;
60054;SDS011;45930;53.514;55.904;2023-04-24T01:44:45;33.05;;;26.10;;
60054;SDS011;45930;53.514;55.904;2023-04-24T01:45:46;31.40;;;25.90;;
60054;SDS011;45930;53.514;55.904;2023-04-24T01:46:47;36.45;;;27.83;;
60054;SDS011;45930;53.514;55.904;2023-04-24T01:47:47;35.15;;;26.50;;
60054;SDS011;45930;53.514;55.904;2023-04-24T01:48:50;30.75;;;24.42;;
60054;SDS011;45930;53.514;55.904;2023-04-24T01:49:52;29.20;;;25.25;;
60054;SDS011;45930;53.514;55.904;2023-04-24T01:50:52;29.90;;;25.23;;
60054;SDS011;45930;53.514;55.904;2023-04-24T01:51:53;30.27;;;26.42;;
60054;SDS011;45930;53.514;55.904;2023-04-24T01:52:54;33.13;;;25.70;;
60054;SDS011;45930;53.514;55.904;2023-04-24T01:53:55;30.92;;;24.90;;
60054;SDS011;45930;53.514;55.904;2023-04-24T01:54:56;29.05;;;24.73;;
60054;SDS011;45930;53.514;55.904;2023-04-24T01:56:00;34.03;;;26.00;;
60054;SDS011;45930;53.514;55.904;2023-04-24T01:57:01;32.80;;;26.58;;
60054;SDS011;45930;53.514;55.904;2023-04-24T01:58:02;32.83;;;26.13;;
60054;SDS011;45930;53.514;55.904;2023-04-24T01:59:03;30.55;;;25.88;;
60054;SDS011;45930;53.514;55.904;2023-04-24T02:00:04;34.08;;;27.20;;
60054;SDS011;45930;53.514;55.904;2023-04-24T02:01:07;34.28;;;27.48;;
60054;SDS011;45930;53.514;55.904;2023-04-24T02:02:08;32.90;;;26.40;;
60054;SDS011;45930;53.514;55.904;2023-04-24T02:03:09;35.28;;;27.25;;
60054;SDS011;45930;53.514;55.904;2023-04-24T02:04:09;36.55;;;27.48;;
60054;SDS011;45930;53.514;55.904;2023-04-24T02:05:10;34.83;;;26.77;;
60054;SDS011;45930;53.514;55.904;2023-04-24T02:06:11;32.95;;;26.58;;
60054;SDS011;45930;53.514;55.904;2023-04-24T02:07:12;33.85;;;26.88;;
60054;SDS011;45930;53.514;55.904;2023-04-24T02:08:13;34.13;;;26.92;;
60054;SDS011;45930;53.514;55.904;2023-04-24T02:09:14;33.17;;;26.35;;
60054;SDS011;45930;53.514;55.904;2023-04-24T02:10:14;36.53;;;27.42;;
60054;SDS011;45930;53.514;55.904;2023-04-24T02:11:16;35.28;;;26.58;;
60054;SDS011;45930;53.514;55.904;2023-04-24T02:12:16;32.75;;;27.58;;
60054;SDS011;45930;53.514;55.904;2023-04-24T02:13:20;31.42;;;26.02;;
60054;SDS011;45930;53.514;55.904;2023-04-24T02:14:21;35.80;;;27.10;;
60054;SDS011;45930;53.514;55.904;2023-04-24T02:15:22;35.10;;;26.48;;
60054;SDS011;45930;53.514;55.904;2023-04-24T02:16:23;31.73;;;27.38;;
60054;SDS011;45930;53.514;55.904;2023-04-24T02:17:24;37.53;;;27.25;;
60054;SDS011;45930;53.514;55.904;2023-04-24T02:18:25;38.40;;;28.15;;
60054;SDS011;45930;53.514;55.904;2023-04-24T02:19:26;31.75;;;28.23;;
60054;SDS011;45930;53.514;55.904;2023-04-24T02:20:30;34.22;;;29.65;;
60054;SDS011;45930;53.514;55.904;2023-04-24T02:21:31;35.13;;;28.25;;
60054;SDS011;45930;53.514;55.904;2023-04-24T02:22:32;40.10;;;30.88;;
60054;SDS011;45930;53.514;55.904;2023-04-24T02:23:32;37.60;;;29.23;;
60054;SDS011;45930;53.514;55.904;2023-04-24T02:24:33;36.10;;;30.00;;
60054;SDS011;45930;53.514;55.904;2023-04-24T02:25:34;39.65;;;30.15;;
60054;SDS011;45930;53.514;55.904;2023-04-24T02:26:35;39.85;;;29.80;;
60054;SDS011;45930;53.514;55.904;2023-04-24T02:27:36;37.72;;;29.60;;
60054;SDS011;45930;53.514;55.904;2023-04-24T02:28:36;38.38;;;30.25;;
60054;SDS011;45930;53.514;55.904;2023-04-24T02:29:37;38.08;;;31.00;;
60054;SDS011;45930;53.514;55.904;2023-04-24T02:30:38;40.92;;;29.63;;
60054;SDS011;45930;53.514;55.904;2023-04-24T02:31:39;39.58;;;28.35;;
60054;SDS011;45930;53.514;55.904;2023-04-24T02:32:40;33.88;;;27.20;;
60054;SDS011;45930;53.514;55.904;2023-04-24T02:33:41;37.63;;;27.83;;
60054;SDS011;45930;53.514;55.904;2023-04-24T02:34:41;36.88;;;27.92;;
60054;SDS011;45930;53.514;55.904;2023-04-24T02:35:42;32.67;;;26.25;;
60054;SDS011;45930;53.514;55.904;2023-04-24T02:36:43;30.10;;;25.08;;
60054;SDS011;45930;53.514;55.904;2023-04-24T02:37:44;30.42;;;25.52;;
60054;SDS011;45930;53.514;55.904;2023-04-24T02:38:44;31.20;;;25.17;;
60054;SDS011;45930;53.514;55.904;2023-04-24T02:39:45;29.80;;;23.35;;
60054;SDS011;45930;53.514;55.904;2023-04-24T02:40:46;32.22;;;24.33;;
60054;SDS011;45930;53.514;55.904;2023-04-24T02:41:47;35.95;;;24.40;;
60054;SDS011;45930;53.514;55.904;2023-04-24T02:42:48;31.70;;;23.15;;
60054;SDS011;45930;53.514;55.904;2023-04-24T02:43:48;30.77;;;22.42;;
60054;SDS011;45930;53.514;55.904;2023-04-24T02:44:49;29.48;;;24.05;;
60054;SDS011;45930;53.514;55.904;2023-04-24T02:45:51;27.75;;;21.52;;
60054;SDS011;45930;53.514;55.904;2023-04-24T02:46:52;31.13;;;23.35;;
60054;SDS011;45930;53.514;55.904;2023-04-24T02:47:53;30.38;;;23.92;;
60054;SDS011;45930;53.514;55.904;2023-04-24T02:48:53;29.73;;;22.05;;
60054;SDS011;45930;53.514;55.904;2023-04-24T02:49:54;29.52;;;22.95;;
60054;SDS011;45930;53.514;55.904;2023-04-24T02:50:55;23.98;;;20.08;;
60054;SDS011;45930;53.514;55.904;2023-04-24T02:51:57;25.70;;;21.45;;
60054;SDS011;45930;53.514;55.904;2023-04-24T02:52:58;26.83;;;20.77;;
60054;SDS011;45930;53.514;55.904;2023-04-24T02:53:59;27.83;;;20.55;;
60054;SDS011;45930;53.514;55.904;2023-04-24T02:55:00;25.58;;;19.40;;
60054;SDS011;45930;53.514;55.904;2023-04-24T02:56:01;28.40;;;20.23;;
60054;SDS011;45930;53.514;55.904;2023-04-24T02:57:02;28.98;;;20.23;;
60054;SDS011;45930;53.514;55.904;2023-04-24T02:58:02;27.60;;;20.23;;
60054;SDS011;45930;53.514;55.904;2023-04-24T02:59:03;25.30;;;20.08;;
60054;SDS011;45930;53.514;55.904;2023-04-24T03:00:04;26.88;;;20.38;;
60054;SDS011;45930;53.514;55.904;2023-04-24T03:01:07;25.13;;;19.15;;
60054;SDS011;45930;53.514;55.904;2023-04-24T03:02:11;23.50;;;20.05;;
60054;SDS011;45930;53.514;55.904;2023-04-24T03:03:12;25.95;;;19.98;;
60054;SDS011;45930;53.514;55.904;2023-04-24T03:04:13;27.48;;;19.88;;
60054;SDS011;45930;53.514;55.904;2023-04-24T03:05:13;26.70;;;19.17;;
60054;SDS011;45930;53.514;55.904;2023-04-24T03:06:14;25.73;;;20.60;;
60054;SDS011;45930;53.514;55.904;2023-04-24T03:07:15;26.52;;;20.08;;
60054;SDS011;45930;53.514;55.904;2023-04-24T03:08:16;28.63;;;19.98;;
60054;SDS011;45930;53.514;55.904;2023-04-24T03:09:18;22.40;;;18.55;;
60054;SDS011;45930;53.514;55.904;2023-04-24T03:10:19;28.98;;;19.73;;
60054;SDS011;45930;53.514;55.904;2023-04-24T03:11:20;27.35;;;19.33;;
60054;SDS011;45930;53.514;55.904;2023-04-24T03:12:21;23.65;;;18.92;;
60054;SDS011;45930;53.514;55.904;2023-04-24T03:13:24;23.52;;;18.92;;
60054;SDS011;45930;53.514;55.904;2023-04-24T03:14:24;27.42;;;19.52;;
60054;SDS011;45930;53.514;55.904;2023-04-24T03:15:26;26.70;;;20.08;;
60054;SDS011;45930;53.514;55.904;2023-04-24T03:16:27;26.35;;;19.33;;
60054;SDS011;45930;53.514;55.904;2023-04-24T03:17:27;24.23;;;19.13;;
60054;SDS011;45930;53.514;55.904;2023-04-24T03:18:28;24.27;;;19.38;;
60054;SDS011;45930;53.514;55.904;2023-04-24T03:19:29;27.17;;;20.23;;
60054;SDS011;45930;53.514;55.904;2023-04-24T03:20:30;27.02;;;19.58;;
60054;SDS011;45930;53.514;55.904;2023-04-24T03:21:32;25.25;;;19.30;;
60054;SDS011;45930;53.514;55.904;2023-04-24T03:22:33;28.38;;;20.08;;
60054;SDS011;45930;53.514;55.904;2023-04-24T03:23:35;27.35;;;20.20;;
60054;SDS011;45930;53.514;55.904;2023-04-24T03:24:35;26.67;;;19.70;;
60054;SDS011;45930;53.514;55.904;2023-04-24T03:25:36;28.60;;;19.77;;
60054;SDS011;45930;53.514;55.904;2023-04-24T03:26:37;31.58;;;20.50;;
60054;SDS011;45930;53.514;55.904;2023-04-24T03:27:38;27.45;;;20.10;;
60054;SDS011;45930;53.514;55.904;2023-04-24T03:28:39;27.00;;;19.92;;
60054;SDS011;45930;53.514;55.904;2023-04-24T03:29:41;27.75;;;20.15;;
60054;SDS011;45930;53.514;55.904;2023-04-24T03:30:41;24.58;;;19.67;;
60054;SDS011;45930;53.514;55.904;2023-04-24T03:31:42;26.65;;;19.50;;
60054;SDS011;45930;53.514;55.904;2023-04-24T03:32:43;27.40;;;20.73;;
60054;SDS011;45930;53.514;55.904;2023-04-24T03:33:44;33.15;;;20.98;;
60054;SDS011;45930;53.514;55.904;2023-04-24T03:34:45;28.00;;;20.80;;
60054;SDS011;45930;53.514;55.904;2023-04-24T03:35:45;27.40;;;20.58;;
60054;SDS011;45930;53.514;55.904;2023-04-24T03:36:46;27.95;;;20.70;;
60054;SDS011;45930;53.514;55.904;2023-04-24T03:37:50;30.17;;;21.60;;
60054;SDS011;45930;53.514;55.904;2023-04-24T03:38:50;25.33;;;20.30;;
60054;SDS011;45930;53.514;55.904;2023-04-24T03:39:51;26.05;;;19.73;;
60054;SDS011;45930;53.514;55.904;2023-04-24T03:40:52;32.72;;;22.05;;
60054;SDS011;45930;53.514;55.904;2023-04-24T03:41:53;30.58;;;21.83;;
60054;SDS011;45930;53.514;55.904;2023-04-24T03:42:54;28.80;;;20.88;;
60054;SDS011;45930;53.514;55.904;2023-04-24T03:43:55;28.05;;;20.80;;
60054;SDS011;45930;53.514;55.904;2023-04-24T03:44:56;24.23;;;19.27;;
60054;SDS011;45930;53.514;55.904;2023-04-24T03:45:57;27.40;;;19.83;;
60054;SDS011;45930;53.514;55.904;2023-04-24T03:46:58;25.48;;;18.70;;
60054;SDS011;45930;53.514;55.904;2023-04-24T03:47:59;26.23;;;19.42;;
60054;SDS011;45930;53.514;55.904;2023-04-24T03:48:59;24.58;;;18.90;;
60054;SDS011;45930;53.514;55.904;2023-04-24T03:50:00;25.88;;;18.83;;
60054;SDS011;45930;53.514;55.904;2023-04-24T03:51:01;27.98;;;18.77;;
60054;SDS011;45930;53.514;55.904;2023-04-24T03:52:03;25.70;;;17.48;;
60054;SDS011;45930;53.514;55.904;2023-04-24T03:53:03;28.05;;;18.65;;
60054;SDS011;45930;53.514;55.904;2023-04-24T03:54:04;26.40;;;17.65;;
60054;SDS011;45930;53.514;55.904;2023-04-24T03:55:05;27.27;;;17.38;;
60054;SDS011;45930;53.514;55.904;2023-04-24T03:56:07;31.80;;;19.05;;
60054;SDS011;45930;53.514;55.904;2023-04-24T03:57:07;24.48;;;17.27;;
60054;SDS011;45930;53.514;55.904;2023-04-24T03:58:08;28.90;;;19.25;;
60054;SDS011;45930;53.514;55.904;2023-04-24T03:59:09;30.55;;;17.15;;
60054;SDS011;45930;53.514;55.904;2023-04-24T04:00:10;20.42;;;15.45;;
60054;SDS011;45930;53.514;55.904;2023-04-24T04:01:11;23.77;;;16.60;;
60054;SDS011;45930;53.514;55.904;2023-04-24T04:02:13;17.90;;;15.40;;
60054;SDS011;45930;53.514;55.904;2023-04-24T04:03:14;22.63;;;16.02;;
60054;SDS011;45930;53.514;55.904;2023-04-24T04:04:15;23.10;;;16.48;;
60054;SDS011;45930;53.514;55.904;2023-04-24T04:05:16;22.75;;;16.67;;
60054;SDS011;45930;53.514;55.904;2023-04-24T04:06:17;22.10;;;16.63;;
60054;SDS011;45930;53.514;55.904;2023-04-24T04:07:18;20.33;;;16.58;;
60054;SDS011;45930;53.514;55.904;2023-04-24T04:08:19;22.73;;;16.83;;
60054;SDS011;45930;53.514;55.904;2023-04-24T04:09:20;25.02;;;17.42;;
60054;SDS011;45930;53.514;55.904;2023-04-24T04:10:21;22.70;;;17.40;;
60054;SDS011;45930;53.514;55.904;2023-04-24T04:11:21;28.98;;;17.90;;
60054;SDS011;45930;53.514;55.904;2023-04-24T04:12:22;20.80;;;15.20;;
60054;SDS011;45930;53.514;55.904;2023-04-24T04:13:23;18.98;;;15.10;;
60054;SDS011;45930;53.514;55.904;2023-04-24T04:14:24;24.52;;;16.13;;
60054;SDS011;45930;53.514;55.904;2023-04-24T04:15:25;19.83;;;16.42;;
60054;SDS011;45930;53.514;55.904;2023-04-24T04:16:26;25.50;;;17.13;;
60054;SDS011;45930;53.514;55.904;2023-04-24T04:17:26;27.05;;;18.05;;
60054;SDS011;45930;53.514;55.904;2023-04-24T04:18:27;31.13;;;16.73;;
60054;SDS011;45930;53.514;55.904;2023-04-24T04:19:28;25.20;;;16.10;;
60054;SDS011;45930;53.514;55.904;2023-04-24T04:20:29;25.05;;;17.10;;
60054;SDS011;45930;53.514;55.904;2023-04-24T04:21:30;25.40;;;16.77;;
60054;SDS011;45930;53.514;55.904;2023-04-24T04:22:31;18.85;;;16.05;;
60054;SDS011;45930;53.514;55.904;2023-04-24T04:23:32;21.42;;;16.33;;
60054;SDS011;45930;53.514;55.904;2023-04-24T04:24:33;20.40;;;16.13;;
60054;SDS011;45930;53.514;55.904;2023-04-24T04:25:38;21.15;;;17.23;;
60054;SDS011;45930;53.514;55.904;2023-04-24T04:26:38;21.98;;;16.30;;
60054;SDS011;45930;53.514;55.904;2023-04-24T04:27:40;26.77;;;17.80;;
60054;SDS011;45930;53.514;55.904;2023-04-24T04:28:41;23.08;;;16.45;;
60054;SDS011;45930;53.514;55.904;2023-04-24T04:29:44;23.67;;;16.00;;
60054;SDS011;45930;53.514;55.904;2023-04-24T04:30:46;22.35;;;17.77;;
60054;SDS011;45930;53.514;55.904;2023-04-24T04:31:47;24.17;;;17.33;;
60054;SDS011;45930;53.514;55.904;2023-04-24T04:32:48;21.42;;;18.05;;
60054;SDS011;45930;53.514;55.904;2023-04-24T04:33:48;21.95;;;16.27;;
60054;SDS011;45930;53.514;55.904;2023-04-24T04:34:49;22.17;;;17.75;;
60054;SDS011;45930;53.514;55.904;2023-04-24T04:35:53;23.67;;;17.70;;
60054;SDS011;45930;53.514;55.904;2023-04-24T04:36:57;28.60;;;18.98;;
60054;SDS011;45930;53.514;55.904;2023-04-24T04:38:00;24.75;;;17.35;;
60054;SDS011;45930;53.514;55.904;2023-04-24T04:39:01;25.23;;;16.48;;
60054;SDS011;45930;53.514;55.904;2023-04-24T04:40:03;50.30;;;19.67;;
60054;SDS011;45930;53.514;55.904;2023-04-24T04:41:07;27.20;;;18.00;;
60054;SDS011;45930;53.514;55.904;2023-04-24T04:42:07;21.63;;;16.35;;
60054;SDS011;45930;53.514;55.904;2023-04-24T04:43:08;25.52;;;18.23;;
60054;SDS011;45930;53.514;55.904;2023-04-24T04:44:10;26.00;;;17.98;;
60054;SDS011;45930;53.514;55.904;2023-04-24T04:45:11;28.60;;;17.02;;
60054;SDS011;45930;53.514;55.904;2023-04-24T04:46:12;20.00;;;16.48;;
60054;SDS011;45930;53.514;55.904;2023-04-24T04:47:13;25.58;;;17.98;;
60054;SDS011;45930;53.514;55.904;2023-04-24T04:48:13;30.35;;;18.13;;
60054;SDS011;45930;53.514;55.904;2023-04-24T04:49:18;20.05;;;15.73;;
60054;SDS011;45930;53.514;55.904;2023-04-24T04:50:18;22.27;;;17.27;;
60054;SDS011;45930;53.514;55.904;2023-04-24T04:51:19;21.17;;;18.23;;
60054;SDS011;45930;53.514;55.904;2023-04-24T04:52:21;21.25;;;16.88;;
60054;SDS011;45930;53.514;55.904;2023-04-24T04:53:25;19.58;;;16.65;;
60054;SDS011;45930;53.514;55.904;2023-04-24T04:54:26;19.30;;;16.98;;
60054;SDS011;45930;53.514;55.904;2023-04-24T04:55:27;22.63;;;15.85;;
60054;SDS011;45930;53.514;55.904;2023-04-24T04:56:28;22.25;;;17.10;;
60054;SDS011;45930;53.514;55.904;2023-04-24T04:57:29;20.75;;;16.23;;
60054;SDS011;45930;53.514;55.904;2023-04-24T04:58:30;18.48;;;14.57;;
60054;SDS011;45930;53.514;55.904;2023-04-24T04:59:31;21.30;;;15.27;;
60054;SDS011;45930;53.514;55.904;2023-04-24T05:00:32;19.10;;;16.00;;
60054;SDS011;45930;53.514;55.904;2023-04-24T05:01:36;22.45;;;16.23;;
60054;SDS011;45930;53.514;55.904;2023-04-24T05:02:37;20.65;;;15.77;;
60054;SDS011;45930;53.514;55.904;2023-04-24T05:03:38;19.75;;;15.40;;
60054;SDS011;45930;53.514;55.904;2023-04-24T05:04:39;20.70;;;14.82;;
60054;SDS011;45930;53.514;55.904;2023-04-24T05:05:40;21.25;;;15.90;;
60054;SDS011;45930;53.514;55.904;2023-04-24T05:06:41;20.98;;;16.55;;
60054;SDS011;45930;53.514;55.904;2023-04-24T05:07:41;19.98;;;15.18;;
60054;SDS011;45930;53.514;55.904;2023-04-24T05:08:42;21.52;;;16.38;;
60054;SDS011;45930;53.514;55.904;2023-04-24T05:09:43;26.80;;;16.98;;
60054;SDS011;45930;53.514;55.904;2023-04-24T05:10:45;24.80;;;14.82;;
60054;SDS011;45930;53.514;55.904;2023-04-24T05:11:45;24.10;;;16.38;;
60054;SDS011;45930;53.514;55.904;2023-04-24T05:12:46;19.63;;;15.50;;
60054;SDS011;45930;53.514;55.904;2023-04-24T05:13:47;20.42;;;17.00;;
60054;SDS011;45930;53.514;55.904;2023-04-24T05:14:48;24.88;;;16.23;;
60054;SDS011;45930;53.514;55.904;2023-04-24T05:15:48;18.65;;;15.40;;
60054;SDS011;45930;53.514;55.904;2023-04-24T05:16:49;21.45;;;15.68;;
60054;SDS011;45930;53.514;55.904;2023-04-24T05:17:51;22.98;;;16.25;;
60054;SDS011;45930;53.514;55.904;2023-04-24T05:18:51;28.05;;;17.50;;
60054;SDS011;45930;53.514;55.904;2023-04-24T05:19:53;17.58;;;15.23;;
60054;SDS011;45930;53.514;55.904;2023-04-24T05:20:54;21.85;;;16.63;;
60054;SDS011;45930;53.514;55.904;2023-04-24T05:21:55;23.20;;;16.73;;
60054;SDS011;45930;53.514;55.904;2023-04-24T05:22:56;24.08;;;17.02;;
60054;SDS011;45930;53.514;55.904;2023-04-24T05:23:57;17.70;;;15.85;;
60054;SDS011;45930;53.514;55.904;2023-04-24T05:24:59;21.73;;;16.58;;
60054;SDS011;45930;53.514;55.904;2023-04-24T05:26:00;23.40;;;15.43;;
60054;SDS011;45930;53.514;55.904;2023-04-24T05:27:01;24.13;;;15.57;;
60054;SDS011;45930;53.514;55.904;2023-04-24T05:28:03;22.30;;;15.68;;
60054;SDS011;45930;53.514;55.904;2023-04-24T05:29:03;16.88;;;15.07;;
60054;SDS011;45930;53.514;55.904;2023-04-24T05:30:05;19.40;;;14.48;;
60054;SDS011;45930;53.514;55.904;2023-04-24T05:31:07;23.55;;;15.18;;
60054;SDS011;45930;53.514;55.904;2023-04-24T05:32:08;18.52;;;15.73;;
60054;SDS011;45930;53.514;55.904;2023-04-24T05:33:09;18.20;;;14.60;;
60054;SDS011;45930;53.514;55.904;2023-04-24T05:34:10;21.05;;;14.63;;
60054;SDS011;45930;53.514;55.904;2023-04-24T05:35:11;16.40;;;14.60;;
60054;SDS011;45930;53.514;55.904;2023-04-24T05:36:12;20.40;;;15.07;;
60054;SDS011;45930;53.514;55.904;2023-04-24T05:37:13;20.08;;;14.18;;
60054;SDS011;45930;53.514;55.904;2023-04-24T05:38:14;18.83;;;14.63;;
60054;SDS011;45930;53.514;55.904;2023-04-24T05:39:20;18.48;;;14.27;;
60054;SDS011;45930;53.514;55.904;2023-04-24T05:40:21;20.40;;;12.75;;
60054;SDS011;45930;53.514;55.904;2023-04-24T05:41:22;17.55;;;13.55;;
60054;SDS011;45930;53.514;55.904;2023-04-24T05:42:23;16.73;;;13.25;;
60054;SDS011;45930;53.514;55.904;2023-04-24T05:43:23;15.10;;;13.43;;
60054;SDS011;45930;53.514;55.904;2023-04-24T05:44:25;17.35;;;14.27;;
60054;SDS011;45930;53.514;55.904;2023-04-24T05:45:26;19.30;;;13.30;;
60054;SDS011;45930;53.514;55.904;2023-04-24T05:46:30;17.98;;;13.70;;
60054;SDS011;45930;53.514;55.904;2023-04-24T05:47:30;16.80;;;13.40;;
60054;SDS011;45930;53.514;55.904;2023-04-24T05:48:31;17.25;;;13.10;;
60054;SDS011;45930;53.514;55.904;2023-04-24T05:49:32;15.95;;;13.45;;
60054;SDS011;45930;53.514;55.904;2023-04-24T05:50:33;14.43;;;12.50;;
60054;SDS011;45930;53.514;55.904;2023-04-24T05:51:34;16.77;;;12.98;;
60054;SDS011;45930;53.514;55.904;2023-04-24T05:52:34;13.35;;;11.30;;